• Join FlightAware (Why Join?)
  • Login
  • US Flag 
03:48AM EDT


 

Airport Tracker/Info


-or-


 

Live Flight TrackerFlight Track Log ✈ N731P ✈ 27-Jun-2013 ✈ KADS - KHOU

Flight Track Log - Related Links

Times and Time Zones

All times are in EDT time to prevent confusion due to time zone crossing. See the N731P flight status page for this flight to view local times or setup timezone preferences in your user account.

Time Position Orientation Groundspeed Altitude Reporting Facility
EDT Latitude Longitude Course Direction KTS MPH feet Rate Location/Type
12:25PM 33.0833 -96.9167 158° South 165 190 3,300  Level Dallas / Fort Worth TRACON
12:26PM 33.0333 -96.9167 180° South 160 184 2,800 -420 Descending Dallas / Fort Worth TRACON
12:27PM 33.0000 -96.9000 157° South 159 183 2,500 -180 Descending Dallas / Fort Worth TRACON
12:28PM 32.9500 -96.8833 164° South 143 165 2,500  Level Dallas / Fort Worth TRACON
12:29PM 32.9167 -96.8833 180° South 138 159 2,500 -420 Level Dallas / Fort Worth TRACON
12:30PM 32.8833 -96.8667 157° South 119 137 1,700 -780 Descending Dallas / Fort Worth TRACON
12:31PM 32.5238 -96.6209 158° South  Level Estimated
12:32PM 32.8275 -96.8542 169° South  Level FlightAware Approximate
12:39PM 32.5019 -96.7817 169° South  Level FlightAware Approximate
12:40PM 32.4554 -96.7714 169° South  Level FlightAware Approximate
12:41PM 32.4089 -96.7611 169° South  Level FlightAware Approximate
12:42PM 32.3624 -96.7508 169° South  Level FlightAware Approximate
12:43PM 32.3159 -96.7405 169° South  Level FlightAware Approximate
12:44PM 32.2693 -96.7306 171° South  Level FlightAware Approximate
12:45PM 32.2226 -96.7215 171° South  Level FlightAware Approximate
12:46PM 32.1759 -96.7124 171° South  Level FlightAware Approximate
12:47PM 32.1292 -96.7034 171° South  Level FlightAware Approximate
12:48PM 32.0825 -96.6943 171° South  Level FlightAware Approximate
12:49PM 32.0358 -96.6853 171° South  Level FlightAware Approximate
12:50PM 31.9891 -96.6762 171° South  Level FlightAware Approximate
12:51PM 31.9424 -96.6672 171° South  Level FlightAware Approximate
12:52PM 31.8957 -96.6582 171° South  Level FlightAware Approximate
12:53PM 31.8490 -96.6492 171° South  Level FlightAware Approximate
12:54PM 31.8023 -96.6402 171° South  Level FlightAware Approximate
12:55PM 31.7556 -96.6312 171° South  Level FlightAware Approximate
12:56PM 31.7089 -96.6221 171° South  Level FlightAware Approximate
12:57PM 31.6623 -96.6130 171° South  Level FlightAware Approximate
12:58PM 31.6156 -96.6040 171° South  Level FlightAware Approximate
12:59PM 31.5689 -96.5949 171° South  Level FlightAware Approximate
01:00PM 31.5222 -96.5859 171° South  Level FlightAware Approximate
01:01PM 31.4755 -96.5768 171° South  Level FlightAware Approximate
01:02PM 31.4288 -96.5678 171° South  Level FlightAware Approximate
01:03PM 31.3821 -96.5588 171° South  Level FlightAware Approximate
01:04PM 31.3354 -96.5498 171° South  Level FlightAware Approximate
01:05PM 31.2887 -96.5408 171° South  Level FlightAware Approximate
01:06PM 31.2420 -96.5319 171° South  Level FlightAware Approximate
01:07PM 31.1952 -96.5234 171° South  Level FlightAware Approximate
01:08PM 31.1485 -96.5150 171° South  Level FlightAware Approximate
01:09PM 31.1017 -96.5066 171° South  Level FlightAware Approximate
01:10PM 31.0549 -96.4982 171° South  Level FlightAware Approximate
01:11PM 31.0082 -96.4897 171° South  Level FlightAware Approximate
01:12PM 30.9614 -96.4813 171° South  Level FlightAware Approximate
01:13PM 30.9146 -96.4729 171° South  Level FlightAware Approximate
01:14PM 30.8679 -96.4645 171° South  Level FlightAware Approximate
01:15PM 30.8211 -96.4562 171° South  Level FlightAware Approximate
01:16PM 30.7743 -96.4478 171° South  Level FlightAware Approximate
01:17PM 30.7276 -96.4394 171° South  Level FlightAware Approximate
01:18PM 30.6808 -96.4311 171° South  Level FlightAware Approximate
01:19PM 30.6340 -96.4227 171° South  Level FlightAware Approximate
01:20PM 30.5877 -96.4119 161° South  Level FlightAware Approximate
01:21PM 30.5429 -96.3944 161° South  Level FlightAware Approximate
01:22PM 30.4980 -96.3769 161° South  Level FlightAware Approximate
01:23PM 30.4532 -96.3595 161° South  Level FlightAware Approximate
01:24PM 30.4083 -96.3420 161° South  Level FlightAware Approximate
01:25PM 30.3634 -96.3246 161° South  Level FlightAware Approximate
01:26PM 30.3186 -96.3072 161° South  Level FlightAware Approximate
01:27PM 30.2741 -96.2885 159° South  Level FlightAware Approximate
01:28PM 30.2299 -96.2688 159° South  Level FlightAware Approximate
01:29PM 30.1857 -96.2492 159° South  Level FlightAware Approximate
01:30PM 30.1415 -96.2299 161° South  Level FlightAware Approximate
01:31PM 30.0967 -96.2120 161° South  Level FlightAware Approximate
01:32PM 30.0519 -96.1945 162° South  Level FlightAware Approximate
01:33PM 30.0069 -96.1776 162° South  Level FlightAware Approximate
01:34PM 29.9619 -96.1607 162° South  Level FlightAware Approximate
01:35PM 29.9272 -96.1314 111° Southeast  Level FlightAware Approximate
01:36PM 29.9102 -96.0804 111° Southeast  Level FlightAware Approximate
01:37PM 29.8933 -96.0294 111° Southeast  Level FlightAware Approximate
01:38PM 29.8763 -95.9785 111° Southeast  Level FlightAware Approximate
01:39PM 29.8594 -95.9275 111° Southeast  Level FlightAware Approximate
01:40PM 29.8424 -95.8766 111° Southeast  Level FlightAware Approximate
01:41PM 29.8253 -95.8257 111° Southeast  Level FlightAware Approximate
01:42PM 29.8083 -95.7748 111° Southeast  Level FlightAware Approximate
01:43PM 29.7904 -95.7243 113° Southeast  Level FlightAware Approximate
01:44PM 29.7716 -95.6743 113° Southeast  Level FlightAware Approximate
01:45PM 29.7528 -95.6243 113° Southeast  Level FlightAware Approximate
01:46PM 29.7365 -95.5732 110° East  Level FlightAware Approximate
01:47PM 29.7204 -95.5219 110° East  Level FlightAware Approximate
01:48PM 29.7044 -95.4706 110° East  Level FlightAware Approximate
01:49PM 29.6884 -95.4193 110° East  Level FlightAware Approximate
01:50PM 29.6723 -95.3681 110° East  Level FlightAware Approximate
01:51PM 29.6539 -95.3180 115° Southeast  Level FlightAware Approximate
01:52PM 29.6454 -95.2789 115° Southeast  Level Estimated
01:53PM 29.6454 -95.2789 115° Southeast  Level Estimated
01:54PM 29.6454 -95.2789 115° Southeast  Level Estimated
01:55PM 29.6454 -95.2789 115° Southeast  Level Estimated
01:56PM 29.6454 -95.2789 115° Southeast  Level Estimated
01:57PM 29.6454 -95.2789 115° Southeast  Level Estimated
01:58PM 29.6454 -95.2789 115° Southeast  Level Estimated
01:59PM 29.6454 -95.2789 115° Southeast  Level Estimated
02:00PM 29.6454 -95.2789 115° Southeast  Level Estimated
02:01PM 29.6454 -95.2789 115° Southeast  Level Estimated
02:02PM 29.6454 -95.2789 115° Southeast  Level Estimated
02:03PM 29.6454 -95.2789 115° Southeast  Level Estimated
02:04PM 29.6454 -95.2789 115° Southeast  Level Estimated
02:05PM 29.6454 -95.2789 115° Southeast  Level Estimated
02:06PM 29.6454 -95.2789 115° Southeast  Level Estimated
02:07PM 29.6454 -95.2789 115° Southeast  Level Estimated